sensor_id;sensor_type;location;lat;lon;timestamp;pressure;altitude;pressure_sealevel;temperature
9119;BMP180;4594;50.994;7.126;2022-12-29T00:01:49;99506.00;;;15.00
9119;BMP180;4594;50.994;7.126;2022-12-29T00:04:15;99502.00;;;15.00
9119;BMP180;4594;50.994;7.126;2022-12-29T00:06:42;99510.00;;;15.00
9119;BMP180;4594;50.994;7.126;2022-12-29T00:09:08;99498.00;;;15.00
9119;BMP180;4594;50.994;7.126;2022-12-29T00:11:35;99503.00;;;15.10
9119;BMP180;4594;50.994;7.126;2022-12-29T00:14:01;99480.00;;;15.10
9119;BMP180;4594;50.994;7.126;2022-12-29T00:16:45;99473.00;;;15.10
9119;BMP180;4594;50.994;7.126;2022-12-29T00:19:12;99465.00;;;15.10
9119;BMP180;4594;50.994;7.126;2022-12-29T00:21:57;99477.00;;;15.00
9119;BMP180;4594;50.994;7.126;2022-12-29T00:24:46;99467.00;;;15.00
9119;BMP180;4594;50.994;7.126;2022-12-29T00:27:28;99483.00;;;15.00
9119;BMP180;4594;50.994;7.126;2022-12-29T00:30:20;99474.00;;;15.00
9119;BMP180;4594;50.994;7.126;2022-12-29T00:33:19;99471.00;;;15.10
9119;BMP180;4594;50.994;7.126;2022-12-29T00:36:26;99463.00;;;15.10
9119;BMP180;4594;50.994;7.126;2022-12-29T00:39:07;99452.00;;;15.10
9119;BMP180;4594;50.994;7.126;2022-12-29T00:41:53;99456.00;;;15.10
9119;BMP180;4594;50.994;7.126;2022-12-29T00:44:37;99456.00;;;15.10
9119;BMP180;4594;50.994;7.126;2022-12-29T00:47:02;99444.00;;;15.10
9119;BMP180;4594;50.994;7.126;2022-12-29T00:49:30;99441.00;;;15.10
9119;BMP180;4594;50.994;7.126;2022-12-29T00:52:08;99440.00;;;15.20
9119;BMP180;4594;50.994;7.126;2022-12-29T00:54:37;99447.00;;;15.20
9119;BMP180;4594;50.994;7.126;2022-12-29T00:57:05;99451.00;;;15.30
9119;BMP180;4594;50.994;7.126;2022-12-29T00:59:32;99450.00;;;15.30
9119;BMP180;4594;50.994;7.126;2022-12-29T01:01:58;99439.00;;;15.30
9119;BMP180;4594;50.994;7.126;2022-12-29T01:04:25;99432.00;;;15.30
9119;BMP180;4594;50.994;7.126;2022-12-29T01:06:52;99455.00;;;15.30
9119;BMP180;4594;50.994;7.126;2022-12-29T01:09:18;99459.00;;;15.40
9119;BMP180;4594;50.994;7.126;2022-12-29T01:12:23;99450.00;;;15.40
9119;BMP180;4594;50.994;7.126;2022-12-29T01:15:08;99456.00;;;15.40
9119;BMP180;4594;50.994;7.126;2022-12-29T01:17:35;99464.00;;;15.40
9119;BMP180;4594;50.994;7.126;2022-12-29T01:20:02;99449.00;;;15.40
9119;BMP180;4594;50.994;7.126;2022-12-29T01:22:28;99453.00;;;15.50
9119;BMP180;4594;50.994;7.126;2022-12-29T01:24:54;99455.00;;;15.50
9119;BMP180;4594;50.994;7.126;2022-12-29T01:27:19;99452.00;;;15.50
9119;BMP180;4594;50.994;7.126;2022-12-29T01:29:45;99440.00;;;15.50
9119;BMP180;4594;50.994;7.126;2022-12-29T01:32:11;99451.00;;;15.50
9119;BMP180;4594;50.994;7.126;2022-12-29T01:34:36;99453.00;;;15.50
9119;BMP180;4594;50.994;7.126;2022-12-29T01:37:02;99450.00;;;15.50
9119;BMP180;4594;50.994;7.126;2022-12-29T01:39:27;99449.00;;;15.50
9119;BMP180;4594;50.994;7.126;2022-12-29T01:41:53;99439.00;;;15.50
9119;BMP180;4594;50.994;7.126;2022-12-29T01:44:55;99445.00;;;15.50
9119;BMP180;4594;50.994;7.126;2022-12-29T01:49:56;99447.00;;;15.60
9119;BMP180;4594;50.994;7.126;2022-12-29T01:52:27;99444.00;;;15.60
9119;BMP180;4594;50.994;7.126;2022-12-29T01:54:56;99432.00;;;15.60
9119;BMP180;4594;50.994;7.126;2022-12-29T01:57:33;99444.00;;;15.60
9119;BMP180;4594;50.994;7.126;2022-12-29T02:00:08;99455.00;;;15.60
9119;BMP180;4594;50.994;7.126;2022-12-29T02:02:34;99429.00;;;15.60
9119;BMP180;4594;50.994;7.126;2022-12-29T02:07:53;99425.00;;;15.70
9119;BMP180;4594;50.994;7.126;2022-12-29T02:10:25;99420.00;;;15.70
9119;BMP180;4594;50.994;7.126;2022-12-29T02:12:52;99417.00;;;15.70
9119;BMP180;4594;50.994;7.126;2022-12-29T02:15:34;99413.00;;;15.70
9119;BMP180;4594;50.994;7.126;2022-12-29T02:22:24;99417.00;;;15.70
9119;BMP180;4594;50.994;7.126;2022-12-29T02:28:20;99414.00;;;15.70
9119;BMP180;4594;50.994;7.126;2022-12-29T02:39:52;99407.00;;;15.70
9119;BMP180;4594;50.994;7.126;2022-12-29T02:43:03;99415.00;;;15.80
9119;BMP180;4594;50.994;7.126;2022-12-29T02:45:58;99403.00;;;15.80
9119;BMP180;4594;50.994;7.126;2022-12-29T02:48:43;99392.00;;;15.80
9119;BMP180;4594;50.994;7.126;2022-12-29T02:51:57;99403.00;;;15.80
9119;BMP180;4594;50.994;7.126;2022-12-29T02:54:24;99391.00;;;15.80
9119;BMP180;4594;50.994;7.126;2022-12-29T03:00:11;99384.00;;;15.80
9119;BMP180;4594;50.994;7.126;2022-12-29T03:03:15;99386.00;;;15.80
9119;BMP180;4594;50.994;7.126;2022-12-29T03:11:19;99370.00;;;15.80
9119;BMP180;4594;50.994;7.126;2022-12-29T03:14:22;99367.00;;;15.80
9119;BMP180;4594;50.994;7.126;2022-12-29T03:20:29;99358.00;;;15.80
9119;BMP180;4594;50.994;7.126;2022-12-29T03:23:01;99359.00;;;15.90
9119;BMP180;4594;50.994;7.126;2022-12-29T03:25:37;99368.00;;;15.90
9119;BMP180;4594;50.994;7.126;2022-12-29T03:28:21;99346.00;;;15.90
9119;BMP180;4594;50.994;7.126;2022-12-29T03:30:47;99346.00;;;15.90
9119;BMP180;4594;50.994;7.126;2022-12-29T03:33:20;99356.00;;;16.00
9119;BMP180;4594;50.994;7.126;2022-12-29T03:35:49;99335.00;;;16.00
9119;BMP180;4594;50.994;7.126;2022-12-29T03:38:53;99342.00;;;16.00
9119;BMP180;4594;50.994;7.126;2022-12-29T03:41:29;99341.00;;;16.00
9119;BMP180;4594;50.994;7.126;2022-12-29T03:43:55;99346.00;;;16.00
9119;BMP180;4594;50.994;7.126;2022-12-29T03:46:21;99347.00;;;16.00
9119;BMP180;4594;50.994;7.126;2022-12-29T03:48:47;99349.00;;;16.10
9119;BMP180;4594;50.994;7.126;2022-12-29T03:51:13;99359.00;;;16.10
9119;BMP180;4594;50.994;7.126;2022-12-29T03:53:39;99348.00;;;16.10
9119;BMP180;4594;50.994;7.126;2022-12-29T03:56:05;99340.00;;;16.10
9119;BMP180;4594;50.994;7.126;2022-12-29T03:58:30;99338.00;;;16.10
9119;BMP180;4594;50.994;7.126;2022-12-29T04:00:57;99328.00;;;16.10
9119;BMP180;4594;50.994;7.126;2022-12-29T04:03:22;99330.00;;;16.10
9119;BMP180;4594;50.994;7.126;2022-12-29T04:05:48;99328.00;;;16.20
9119;BMP180;4594;50.994;7.126;2022-12-29T04:08:14;99330.00;;;16.20
9119;BMP180;4594;50.994;7.126;2022-12-29T04:10:40;99335.00;;;16.20
9119;BMP180;4594;50.994;7.126;2022-12-29T04:13:05;99329.00;;;16.20
9119;BMP180;4594;50.994;7.126;2022-12-29T04:15:31;99336.00;;;16.20
9119;BMP180;4594;50.994;7.126;2022-12-29T04:17:57;99327.00;;;16.20
9119;BMP180;4594;50.994;7.126;2022-12-29T04:20:23;99322.00;;;16.20
9119;BMP180;4594;50.994;7.126;2022-12-29T04:23:07;99324.00;;;16.20
9119;BMP180;4594;50.994;7.126;2022-12-29T04:28:00;99329.00;;;16.20
9119;BMP180;4594;50.994;7.126;2022-12-29T04:30:25;99308.00;;;16.20
9119;BMP180;4594;50.994;7.126;2022-12-29T04:32:52;99326.00;;;16.20
9119;BMP180;4594;50.994;7.126;2022-12-29T04:35:18;99306.00;;;16.20
9119;BMP180;4594;50.994;7.126;2022-12-29T04:37:43;99316.00;;;16.20
9119;BMP180;4594;50.994;7.126;2022-12-29T04:40:10;99315.00;;;16.30
9119;BMP180;4594;50.994;7.126;2022-12-29T04:42:36;99286.00;;;16.20
9119;BMP180;4594;50.994;7.126;2022-12-29T04:45:02;99319.00;;;16.20
9119;BMP180;4594;50.994;7.126;2022-12-29T04:47:27;99305.00;;;16.20
9119;BMP180;4594;50.994;7.126;2022-12-29T04:49:53;99329.00;;;16.20
9119;BMP180;4594;50.994;7.126;2022-12-29T04:52:19;99336.00;;;16.30
9119;BMP180;4594;50.994;7.126;2022-12-29T04:54:44;99329.00;;;16.30
9119;BMP180;4594;50.994;7.126;2022-12-29T04:57:10;99333.00;;;16.30
9119;BMP180;4594;50.994;7.126;2022-12-29T04:59:36;99339.00;;;16.30
9119;BMP180;4594;50.994;7.126;2022-12-29T05:02:01;99350.00;;;16.40
9119;BMP180;4594;50.994;7.126;2022-12-29T05:04:27;99344.00;;;16.40
9119;BMP180;4594;50.994;7.126;2022-12-29T05:06:53;99345.00;;;16.40
9119;BMP180;4594;50.994;7.126;2022-12-29T05:09:18;99349.00;;;16.40
9119;BMP180;4594;50.994;7.126;2022-12-29T05:11:44;99328.00;;;16.40
9119;BMP180;4594;50.994;7.126;2022-12-29T05:14:10;99328.00;;;16.40
9119;BMP180;4594;50.994;7.126;2022-12-29T05:16:35;99326.00;;;16.40
9119;BMP180;4594;50.994;7.126;2022-12-29T05:19:01;99352.00;;;16.40
9119;BMP180;4594;50.994;7.126;2022-12-29T05:21:27;99335.00;;;16.40
9119;BMP180;4594;50.994;7.126;2022-12-29T05:23:52;99340.00;;;16.50
9119;BMP180;4594;50.994;7.126;2022-12-29T05:26:18;99344.00;;;16.40
9119;BMP180;4594;50.994;7.126;2022-12-29T05:28:44;99346.00;;;16.40
9119;BMP180;4594;50.994;7.126;2022-12-29T05:31:09;99362.00;;;16.40
9119;BMP180;4594;50.994;7.126;2022-12-29T05:33:35;99341.00;;;16.40
9119;BMP180;4594;50.994;7.126;2022-12-29T05:36:08;99370.00;;;16.40
9119;BMP180;4594;50.994;7.126;2022-12-29T05:38:35;99356.00;;;16.40
9119;BMP180;4594;50.994;7.126;2022-12-29T05:41:01;99341.00;;;16.40
9119;BMP180;4594;50.994;7.126;2022-12-29T05:43:27;99331.00;;;16.40
9119;BMP180;4594;50.994;7.126;2022-12-29T05:45:53;99331.00;;;16.40
9119;BMP180;4594;50.994;7.126;2022-12-29T05:48:19;99341.00;;;16.40
9119;BMP180;4594;50.994;7.126;2022-12-29T05:50:50;99338.00;;;16.40
9119;BMP180;4594;50.994;7.126;2022-12-29T05:53:17;99371.00;;;16.40
9119;BMP180;4594;50.994;7.126;2022-12-29T05:55:44;99351.00;;;16.40
9119;BMP180;4594;50.994;7.126;2022-12-29T05:58:11;99369.00;;;16.40
9119;BMP180;4594;50.994;7.126;2022-12-29T06:00:37;99375.00;;;16.40
9119;BMP180;4594;50.994;7.126;2022-12-29T06:03:03;99370.00;;;16.40
9119;BMP180;4594;50.994;7.126;2022-12-29T06:05:29;99379.00;;;16.40
9119;BMP180;4594;50.994;7.126;2022-12-29T06:07:55;99378.00;;;16.40
9119;BMP180;4594;50.994;7.126;2022-12-29T06:10:20;99377.00;;;16.40
9119;BMP180;4594;50.994;7.126;2022-12-29T06:12:46;99367.00;;;16.40
9119;BMP180;4594;50.994;7.126;2022-12-29T06:15:12;99357.00;;;16.50
9119;BMP180;4594;50.994;7.126;2022-12-29T06:17:38;99365.00;;;16.50
9119;BMP180;4594;50.994;7.126;2022-12-29T06:20:05;99371.00;;;16.50
9119;BMP180;4594;50.994;7.126;2022-12-29T06:22:31;99356.00;;;16.50
9119;BMP180;4594;50.994;7.126;2022-12-29T06:24:57;99361.00;;;16.50
9119;BMP180;4594;50.994;7.126;2022-12-29T06:27:22;99364.00;;;16.50
9119;BMP180;4594;50.994;7.126;2022-12-29T06:29:48;99348.00;;;16.50
9119;BMP180;4594;50.994;7.126;2022-12-29T06:32:15;99344.00;;;16.50
9119;BMP180;4594;50.994;7.126;2022-12-29T06:34:40;99352.00;;;16.50
9119;BMP180;4594;50.994;7.126;2022-12-29T06:37:07;99367.00;;;16.50
9119;BMP180;4594;50.994;7.126;2022-12-29T06:39:33;99351.00;;;16.50
9119;BMP180;4594;50.994;7.126;2022-12-29T06:41:59;99335.00;;;16.50
9119;BMP180;4594;50.994;7.126;2022-12-29T06:44:24;99361.00;;;16.50
9119;BMP180;4594;50.994;7.126;2022-12-29T06:46:50;99363.00;;;16.50
9119;BMP180;4594;50.994;7.126;2022-12-29T06:49:16;99384.00;;;16.50
9119;BMP180;4594;50.994;7.126;2022-12-29T06:51:42;99371.00;;;16.50
9119;BMP180;4594;50.994;7.126;2022-12-29T06:54:08;99378.00;;;16.50
9119;BMP180;4594;50.994;7.126;2022-12-29T06:56:34;99367.00;;;16.50
9119;BMP180;4594;50.994;7.126;2022-12-29T06:58:59;99366.00;;;16.50
9119;BMP180;4594;50.994;7.126;2022-12-29T07:01:28;99376.00;;;16.50
9119;BMP180;4594;50.994;7.126;2022-12-29T07:03:54;99389.00;;;16.50
9119;BMP180;4594;50.994;7.126;2022-12-29T07:06:21;99363.00;;;16.50
9119;BMP180;4594;50.994;7.126;2022-12-29T07:08:47;99383.00;;;16.50
9119;BMP180;4594;50.994;7.126;2022-12-29T07:11:13;99400.00;;;16.50
9119;BMP180;4594;50.994;7.126;2022-12-29T07:13:38;99381.00;;;16.50
9119;BMP180;4594;50.994;7.126;2022-12-29T07:16:08;99390.00;;;16.50
9119;BMP180;4594;50.994;7.126;2022-12-29T07:18:34;99374.00;;;16.50
9119;BMP180;4594;50.994;7.126;2022-12-29T07:21:00;99393.00;;;16.50
9119;BMP180;4594;50.994;7.126;2022-12-29T07:23:26;99399.00;;;16.40
9119;BMP180;4594;50.994;7.126;2022-12-29T07:26:03;99414.00;;;16.40
9119;BMP180;4594;50.994;7.126;2022-12-29T07:28:29;99426.00;;;16.40
9119;BMP180;4594;50.994;7.126;2022-12-29T07:30:55;99421.00;;;16.40
9119;BMP180;4594;50.994;7.126;2022-12-29T07:33:21;99421.00;;;16.40
9119;BMP180;4594;50.994;7.126;2022-12-29T07:35:47;99435.00;;;16.40
9119;BMP180;4594;50.994;7.126;2022-12-29T07:38:13;99437.00;;;16.40
9119;BMP180;4594;50.994;7.126;2022-12-29T07:40:38;99434.00;;;16.40
9119;BMP180;4594;50.994;7.126;2022-12-29T07:43:04;99447.00;;;16.40
9119;BMP180;4594;50.994;7.126;2022-12-29T07:45:30;99442.00;;;16.40
9119;BMP180;4594;50.994;7.126;2022-12-29T07:47:55;99453.00;;;16.40
9119;BMP180;4594;50.994;7.126;2022-12-29T07:50:21;99467.00;;;16.40
9119;BMP180;4594;50.994;7.126;2022-12-29T07:52:47;99467.00;;;16.40
9119;BMP180;4594;50.994;7.126;2022-12-29T07:55:14;99460.00;;;16.40
9119;BMP180;4594;50.994;7.126;2022-12-29T07:57:40;99472.00;;;16.40
9119;BMP180;4594;50.994;7.126;2022-12-29T08:00:07;99468.00;;;16.40
9119;BMP180;4594;50.994;7.126;2022-12-29T08:02:33;99495.00;;;16.40
9119;BMP180;4594;50.994;7.126;2022-12-29T08:04:58;99480.00;;;16.40
9119;BMP180;4594;50.994;7.126;2022-12-29T08:07:24;99484.00;;;16.40
9119;BMP180;4594;50.994;7.126;2022-12-29T08:09:50;99479.00;;;16.50
9119;BMP180;4594;50.994;7.126;2022-12-29T08:12:15;99492.00;;;16.50
9119;BMP180;4594;50.994;7.126;2022-12-29T08:14:41;99474.00;;;16.50
9119;BMP180;4594;50.994;7.126;2022-12-29T08:17:07;99492.00;;;16.50
9119;BMP180;4594;50.994;7.126;2022-12-29T08:19:32;99486.00;;;16.50
9119;BMP180;4594;50.994;7.126;2022-12-29T08:21:58;99489.00;;;16.50
9119;BMP180;4594;50.994;7.126;2022-12-29T08:24:24;99477.00;;;16.50
9119;BMP180;4594;50.994;7.126;2022-12-29T08:26:49;99496.00;;;16.50
9119;BMP180;4594;50.994;7.126;2022-12-29T08:29:15;99489.00;;;16.40
9119;BMP180;4594;50.994;7.126;2022-12-29T08:31:41;99501.00;;;16.40
9119;BMP180;4594;50.994;7.126;2022-12-29T08:34:06;99484.00;;;16.40
9119;BMP180;4594;50.994;7.126;2022-12-29T08:36:32;99494.00;;;16.40
9119;BMP180;4594;50.994;7.126;2022-12-29T08:38:58;99494.00;;;16.40
9119;BMP180;4594;50.994;7.126;2022-12-29T08:41:23;99495.00;;;16.40
9119;BMP180;4594;50.994;7.126;2022-12-29T08:43:50;99502.00;;;16.40
9119;BMP180;4594;50.994;7.126;2022-12-29T08:46:16;99496.00;;;16.40
9119;BMP180;4594;50.994;7.126;2022-12-29T08:48:42;99489.00;;;16.30
9119;BMP180;4594;50.994;7.126;2022-12-29T08:51:08;99508.00;;;16.30
9119;BMP180;4594;50.994;7.126;2022-12-29T08:53:34;99507.00;;;16.30
9119;BMP180;4594;50.994;7.126;2022-12-29T08:56:01;99509.00;;;16.30
9119;BMP180;4594;50.994;7.126;2022-12-29T08:58:27;99517.00;;;16.30
9119;BMP180;4594;50.994;7.126;2022-12-29T09:00:56;99522.00;;;16.30
9119;BMP180;4594;50.994;7.126;2022-12-29T09:03:23;99529.00;;;16.30
9119;BMP180;4594;50.994;7.126;2022-12-29T09:05:54;99527.00;;;16.30
9119;BMP180;4594;50.994;7.126;2022-12-29T09:08:21;99528.00;;;16.30
9119;BMP180;4594;50.994;7.126;2022-12-29T09:10:47;99521.00;;;16.30
9119;BMP180;4594;50.994;7.126;2022-12-29T09:13:15;99531.00;;;16.30
9119;BMP180;4594;50.994;7.126;2022-12-29T09:15:41;99533.00;;;16.30
9119;BMP180;4594;50.994;7.126;2022-12-29T09:18:09;99544.00;;;16.30
9119;BMP180;4594;50.994;7.126;2022-12-29T09:20:35;99554.00;;;16.30
9119;BMP180;4594;50.994;7.126;2022-12-29T09:23:01;99556.00;;;16.30
9119;BMP180;4594;50.994;7.126;2022-12-29T09:25:28;99547.00;;;16.30
9119;BMP180;4594;50.994;7.126;2022-12-29T09:27:54;99549.00;;;16.20
9119;BMP180;4594;50.994;7.126;2022-12-29T09:30:22;99582.00;;;16.30
9119;BMP180;4594;50.994;7.126;2022-12-29T09:32:49;99577.00;;;16.30
9119;BMP180;4594;50.994;7.126;2022-12-29T09:35:15;99581.00;;;16.30
9119;BMP180;4594;50.994;7.126;2022-12-29T09:37:43;99587.00;;;16.40
9119;BMP180;4594;50.994;7.126;2022-12-29T09:40:28;99594.00;;;16.30
9119;BMP180;4594;50.994;7.126;2022-12-29T09:46:24;99604.00;;;16.20
9119;BMP180;4594;50.994;7.126;2022-12-29T09:49:39;99607.00;;;16.30
9119;BMP180;4594;50.994;7.126;2022-12-29T09:52:19;99599.00;;;16.40
9119;BMP180;4594;50.994;7.126;2022-12-29T09:54:54;99604.00;;;16.40
9119;BMP180;4594;50.994;7.126;2022-12-29T09:57:29;99596.00;;;16.60
9119;BMP180;4594;50.994;7.126;2022-12-29T10:00:03;99601.00;;;16.70
9119;BMP180;4594;50.994;7.126;2022-12-29T10:02:38;99605.00;;;16.70
9119;BMP180;4594;50.994;7.126;2022-12-29T10:05:18;99605.00;;;16.80
9119;BMP180;4594;50.994;7.126;2022-12-29T10:07:51;99601.00;;;16.80
9119;BMP180;4594;50.994;7.126;2022-12-29T10:10:56;99589.00;;;16.90
9119;BMP180;4594;50.994;7.126;2022-12-29T10:16:22;99599.00;;;16.90
9119;BMP180;4594;50.994;7.126;2022-12-29T10:24:22;99593.00;;;17.00
9119;BMP180;4594;50.994;7.126;2022-12-29T10:26:51;99573.00;;;17.00
9119;BMP180;4594;50.994;7.126;2022-12-29T10:29:32;99589.00;;;17.00
9119;BMP180;4594;50.994;7.126;2022-12-29T10:32:11;99597.00;;;17.00
9119;BMP180;4594;50.994;7.126;2022-12-29T10:34:45;99604.00;;;17.00
9119;BMP180;4594;50.994;7.126;2022-12-29T10:37:41;99610.00;;;17.00
9119;BMP180;4594;50.994;7.126;2022-12-29T10:40:31;99610.00;;;17.00
9119;BMP180;4594;50.994;7.126;2022-12-29T10:42:59;99599.00;;;17.00
9119;BMP180;4594;50.994;7.126;2022-12-29T10:45:30;99592.00;;;17.10
9119;BMP180;4594;50.994;7.126;2022-12-29T10:48:03;99609.00;;;17.10
9119;BMP180;4594;50.994;7.126;2022-12-29T10:50:30;99610.00;;;17.10
9119;BMP180;4594;50.994;7.126;2022-12-29T10:53:01;99614.00;;;17.10
9119;BMP180;4594;50.994;7.126;2022-12-29T10:55:41;99623.00;;;17.10
9119;BMP180;4594;50.994;7.126;2022-12-29T10:58:13;99631.00;;;17.20
9119;BMP180;4594;50.994;7.126;2022-12-29T11:00:40;99626.00;;;17.20
9119;BMP180;4594;50.994;7.126;2022-12-29T11:05:57;99623.00;;;17.20
9119;BMP180;4594;50.994;7.126;2022-12-29T11:08:33;99615.00;;;17.20
9119;BMP180;4594;50.994;7.126;2022-12-29T11:11:09;99618.00;;;17.20
9119;BMP180;4594;50.994;7.126;2022-12-29T11:14:11;99628.00;;;17.30
9119;BMP180;4594;50.994;7.126;2022-12-29T11:16:38;99614.00;;;17.30
9119;BMP180;4594;50.994;7.126;2022-12-29T11:19:03;99608.00;;;17.40
9119;BMP180;4594;50.994;7.126;2022-12-29T11:21:38;99614.00;;;17.50
9119;BMP180;4594;50.994;7.126;2022-12-29T11:24:22;99624.00;;;17.50
9119;BMP180;4594;50.994;7.126;2022-12-29T11:26:53;99630.00;;;17.50
9119;BMP180;4594;50.994;7.126;2022-12-29T11:29:37;99626.00;;;17.60
9119;BMP180;4594;50.994;7.126;2022-12-29T11:32:17;99635.00;;;17.60
9119;BMP180;4594;50.994;7.126;2022-12-29T11:34:44;99638.00;;;17.50
9119;BMP180;4594;50.994;7.126;2022-12-29T11:42:36;99619.00;;;17.60
9119;BMP180;4594;50.994;7.126;2022-12-29T11:45:09;99627.00;;;17.60
9119;BMP180;4594;50.994;7.126;2022-12-29T11:47:54;99636.00;;;17.60
9119;BMP180;4594;50.994;7.126;2022-12-29T11:50:28;99640.00;;;17.60
9119;BMP180;4594;50.994;7.126;2022-12-29T11:53:20;99647.00;;;17.60
9119;BMP180;4594;50.994;7.126;2022-12-29T11:56:04;99652.00;;;17.60
9119;BMP180;4594;50.994;7.126;2022-12-29T11:58:34;99655.00;;;17.60
9119;BMP180;4594;50.994;7.126;2022-12-29T12:01:12;99654.00;;;17.60
9119;BMP180;4594;50.994;7.126;2022-12-29T12:03:56;99657.00;;;17.60
9119;BMP180;4594;50.994;7.126;2022-12-29T12:06:23;99657.00;;;17.60
9119;BMP180;4594;50.994;7.126;2022-12-29T12:09:06;99662.00;;;17.60
9119;BMP180;4594;50.994;7.126;2022-12-29T12:11:40;99673.00;;;17.60
9119;BMP180;4594;50.994;7.126;2022-12-29T12:14:49;99681.00;;;17.50
9119;BMP180;4594;50.994;7.126;2022-12-29T12:22:58;99666.00;;;17.50
9119;BMP180;4594;50.994;7.126;2022-12-29T12:25:35;99676.00;;;17.40
9119;BMP180;4594;50.994;7.126;2022-12-29T12:28:21;99663.00;;;17.40
9119;BMP180;4594;50.994;7.126;2022-12-29T12:30:56;99658.00;;;17.40
9119;BMP180;4594;50.994;7.126;2022-12-29T12:33:41;99677.00;;;17.40
9119;BMP180;4594;50.994;7.126;2022-12-29T12:36:46;99688.00;;;17.40
9119;BMP180;4594;50.994;7.126;2022-12-29T12:39:36;99674.00;;;17.40
9119;BMP180;4594;50.994;7.126;2022-12-29T12:45:45;99686.00;;;17.30
9119;BMP180;4594;50.994;7.126;2022-12-29T12:54:40;99699.00;;;17.30
9119;BMP180;4594;50.994;7.126;2022-12-29T12:57:49;99698.00;;;17.40
9119;BMP180;4594;50.994;7.126;2022-12-29T13:00:20;99684.00;;;17.40
9119;BMP180;4594;50.994;7.126;2022-12-29T13:03:13;99699.00;;;17.50
9119;BMP180;4594;50.994;7.126;2022-12-29T13:09:43;99692.00;;;17.40
9119;BMP180;4594;50.994;7.126;2022-12-29T13:12:27;99702.00;;;17.50
9119;BMP180;4594;50.994;7.126;2022-12-29T13:18:58;99701.00;;;17.50
9119;BMP180;4594;50.994;7.126;2022-12-29T13:21:06;99703.00;;;17.50
9119;BMP180;4594;50.994;7.126;2022-12-29T13:23:45;99705.00;;;17.60
9119;BMP180;4594;50.994;7.126;2022-12-29T13:26:19;99700.00;;;17.60
9119;BMP180;4594;50.994;7.126;2022-12-29T13:29:19;99686.00;;;17.60
9119;BMP180;4594;50.994;7.126;2022-12-29T13:37:53;99704.00;;;17.50
9119;BMP180;4594;50.994;7.126;2022-12-29T13:40:25;99692.00;;;17.50
9119;BMP180;4594;50.994;7.126;2022-12-29T13:42:55;99706.00;;;17.50
9119;BMP180;4594;50.994;7.126;2022-12-29T13:45:24;99708.00;;;17.50
9119;BMP180;4594;50.994;7.126;2022-12-29T13:48:04;99711.00;;;17.50
9119;BMP180;4594;50.994;7.126;2022-12-29T13:50:36;99712.00;;;17.40
9119;BMP180;4594;50.994;7.126;2022-12-29T13:56:15;99713.00;;;17.40
9119;BMP180;4594;50.994;7.126;2022-12-29T13:59:04;99722.00;;;17.30
9119;BMP180;4594;50.994;7.126;2022-12-29T14:02:00;99714.00;;;17.30
9119;BMP180;4594;50.994;7.126;2022-12-29T14:04:30;99716.00;;;17.30
9119;BMP180;4594;50.994;7.126;2022-12-29T14:07:19;99709.00;;;17.20
9119;BMP180;4594;50.994;7.126;2022-12-29T14:09:50;99726.00;;;17.20
9119;BMP180;4594;50.994;7.126;2022-12-29T14:12:40;99713.00;;;17.20
9119;BMP180;4594;50.994;7.126;2022-12-29T14:17:36;99715.00;;;17.10
9119;BMP180;4594;50.994;7.126;2022-12-29T14:20:06;99728.00;;;17.10
9119;BMP180;4594;50.994;7.126;2022-12-29T14:22:57;99730.00;;;17.10
9119;BMP180;4594;50.994;7.126;2022-12-29T14:28:45;99734.00;;;17.00
9119;BMP180;4594;50.994;7.126;2022-12-29T14:33:41;99726.00;;;17.00
9119;BMP180;4594;50.994;7.126;2022-12-29T14:39:32;99737.00;;;16.90
9119;BMP180;4594;50.994;7.126;2022-12-29T14:44:54;99759.00;;;16.90
9119;BMP180;4594;50.994;7.126;2022-12-29T14:47:34;99761.00;;;16.90
9119;BMP180;4594;50.994;7.126;2022-12-29T14:52:32;99763.00;;;16.80
9119;BMP180;4594;50.994;7.126;2022-12-29T14:57:48;99770.00;;;16.80
9119;BMP180;4594;50.994;7.126;2022-12-29T15:00:29;99751.00;;;16.80
9119;BMP180;4594;50.994;7.126;2022-12-29T15:03:20;99774.00;;;16.80
9119;BMP180;4594;50.994;7.126;2022-12-29T15:08:26;99762.00;;;16.70
9119;BMP180;4594;50.994;7.126;2022-12-29T15:11:00;99754.00;;;16.70
9119;BMP180;4594;50.994;7.126;2022-12-29T15:13:41;99772.00;;;16.60
9119;BMP180;4594;50.994;7.126;2022-12-29T15:16:29;99775.00;;;16.60
9119;BMP180;4594;50.994;7.126;2022-12-29T15:18:56;99781.00;;;16.60
9119;BMP180;4594;50.994;7.126;2022-12-29T15:21:29;99775.00;;;16.60
9119;BMP180;4594;50.994;7.126;2022-12-29T15:23:55;99776.00;;;16.50
9119;BMP180;4594;50.994;7.126;2022-12-29T15:26:21;99767.00;;;16.50
9119;BMP180;4594;50.994;7.126;2022-12-29T15:28:51;99770.00;;;16.50
9119;BMP180;4594;50.994;7.126;2022-12-29T15:31:24;99766.00;;;16.40
9119;BMP180;4594;50.994;7.126;2022-12-29T15:34:08;99772.00;;;16.40
9119;BMP180;4594;50.994;7.126;2022-12-29T15:36:40;99763.00;;;16.30
9119;BMP180;4594;50.994;7.126;2022-12-29T15:39:30;99800.00;;;16.20
9119;BMP180;4594;50.994;7.126;2022-12-29T15:42:06;99781.00;;;16.00
9119;BMP180;4594;50.994;7.126;2022-12-29T15:44:44;99784.00;;;15.90
9119;BMP180;4594;50.994;7.126;2022-12-29T15:47:18;99808.00;;;15.90
9119;BMP180;4594;50.994;7.126;2022-12-29T15:49:49;99806.00;;;15.80
9119;BMP180;4594;50.994;7.126;2022-12-29T15:52:22;99806.00;;;15.70
9119;BMP180;4594;50.994;7.126;2022-12-29T15:54:52;99804.00;;;15.70
9119;BMP180;4594;50.994;7.126;2022-12-29T15:57:25;99812.00;;;15.60
9119;BMP180;4594;50.994;7.126;2022-12-29T15:59:51;99818.00;;;15.50
9119;BMP180;4594;50.994;7.126;2022-12-29T16:02:18;99805.00;;;15.50
9119;BMP180;4594;50.994;7.126;2022-12-29T16:04:44;99792.00;;;15.40
9119;BMP180;4594;50.994;7.126;2022-12-29T16:07:30;99824.00;;;15.30
9119;BMP180;4594;50.994;7.126;2022-12-29T16:10:00;99807.00;;;15.30
9119;BMP180;4594;50.994;7.126;2022-12-29T16:12:34;99812.00;;;15.20
9119;BMP180;4594;50.994;7.126;2022-12-29T16:15:05;99826.00;;;15.10
9119;BMP180;4594;50.994;7.126;2022-12-29T16:17:37;99812.00;;;15.10
9119;BMP180;4594;50.994;7.126;2022-12-29T16:20:20;99818.00;;;15.00
9119;BMP180;4594;50.994;7.126;2022-12-29T16:22:55;99798.00;;;14.90
9119;BMP180;4594;50.994;7.126;2022-12-29T16:25:25;99819.00;;;14.90
9119;BMP180;4594;50.994;7.126;2022-12-29T16:27:53;99812.00;;;14.80
9119;BMP180;4594;50.994;7.126;2022-12-29T16:30:32;99818.00;;;14.70
9119;BMP180;4594;50.994;7.126;2022-12-29T16:33:03;99826.00;;;14.70
9119;BMP180;4594;50.994;7.126;2022-12-29T16:35:45;99806.00;;;14.70
9119;BMP180;4594;50.994;7.126;2022-12-29T16:38:20;99820.00;;;14.60
9119;BMP180;4594;50.994;7.126;2022-12-29T16:40:55;99823.00;;;14.60
9119;BMP180;4594;50.994;7.126;2022-12-29T16:43:42;99826.00;;;14.50
9119;BMP180;4594;50.994;7.126;2022-12-29T16:46:26;99828.00;;;14.50
9119;BMP180;4594;50.994;7.126;2022-12-29T16:48:55;99825.00;;;14.40
9119;BMP180;4594;50.994;7.126;2022-12-29T16:51:33;99813.00;;;14.40
9119;BMP180;4594;50.994;7.126;2022-12-29T16:54:00;99827.00;;;14.30
9119;BMP180;4594;50.994;7.126;2022-12-29T16:56:32;99833.00;;;14.20